sensor_id;sensor_type;location;lat;lon;timestamp;pressure;altitude;pressure_sealevel;temperature;humidity
54236;BME280;40151;43.606;1.472;2023-04-25T00:02:17;99235.41;;;19.23;54.43
54236;BME280;40151;43.606;1.472;2023-04-25T00:04:42;99234.56;;;19.23;54.29
54236;BME280;40151;43.606;1.472;2023-04-25T00:07:08;99235.41;;;19.23;54.48
54236;BME280;40151;43.606;1.472;2023-04-25T00:09:34;99232.75;;;19.23;54.58
54236;BME280;40151;43.606;1.472;2023-04-25T00:11:59;99232.69;;;19.25;54.30
54236;BME280;40151;43.606;1.472;2023-04-25T00:14:26;99222.28;;;19.22;54.41
54236;BME280;40151;43.606;1.472;2023-04-25T00:16:53;99216.13;;;19.21;54.25
54236;BME280;40151;43.606;1.472;2023-04-25T00:19:19;99214.44;;;19.20;54.20
54236;BME280;40151;43.606;1.472;2023-04-25T00:21:44;99214.44;;;19.20;54.44
54236;BME280;40151;43.606;1.472;2023-04-25T00:24:10;99205.56;;;19.21;54.33
54236;BME280;40151;43.606;1.472;2023-04-25T00:26:35;99206.59;;;19.18;54.41
54236;BME280;40151;43.606;1.472;2023-04-25T00:29:01;99211.03;;;19.18;54.39
54236;BME280;40151;43.606;1.472;2023-04-25T00:31:27;99208.41;;;19.18;54.57
54236;BME280;40151;43.606;1.472;2023-04-25T00:33:52;99202.31;;;19.16;54.17
54236;BME280;40151;43.606;1.472;2023-04-25T00:36:18;99202.31;;;19.16;54.48
54236;BME280;40151;43.606;1.472;2023-04-25T00:38:43;99204.03;;;19.17;54.28
54236;BME280;40151;43.606;1.472;2023-04-25T00:41:09;99210.25;;;19.16;54.34
54236;BME280;40151;43.606;1.472;2023-04-25T00:43:36;99210.34;;;19.14;54.26
54236;BME280;40151;43.606;1.472;2023-04-25T00:46:02;99205.91;;;19.15;54.41
54236;BME280;40151;43.606;1.472;2023-04-25T00:48:27;99212.97;;;19.14;54.26
54236;BME280;40151;43.606;1.472;2023-04-25T00:50:57;99201.50;;;19.15;54.38
54236;BME280;40151;43.606;1.472;2023-04-25T00:53:26;99189.19;;;19.14;54.25
54236;BME280;40151;43.606;1.472;2023-04-25T00:55:52;99197.13;;;19.14;54.17
54236;BME280;40151;43.606;1.472;2023-04-25T00:58:19;99202.50;;;19.13;54.47
54236;BME280;40151;43.606;1.472;2023-04-25T01:00:49;99193.72;;;19.12;54.47
54236;BME280;40151;43.606;1.472;2023-04-25T01:03:16;99202.50;;;19.13;54.45
54236;BME280;40151;43.606;1.472;2023-04-25T01:05:42;99191.94;;;19.13;54.12
54236;BME280;40151;43.606;1.472;2023-04-25T01:08:08;99197.13;;;19.14;54.27
54236;BME280;40151;43.606;1.472;2023-04-25T01:10:34;99186.66;;;19.13;54.07
54236;BME280;40151;43.606;1.472;2023-04-25T01:12:59;99184.94;;;19.12;54.17
54236;BME280;40151;43.606;1.472;2023-04-25T01:15:25;99174.38;;;19.12;54.26
54236;BME280;40151;43.606;1.472;2023-04-25T01:17:50;99183.22;;;19.11;54.15
54236;BME280;40151;43.606;1.472;2023-04-25T01:20:16;99184.09;;;19.11;54.13
54236;BME280;40151;43.606;1.472;2023-04-25T01:22:42;99190.31;;;19.10;54.35
54236;BME280;40151;43.606;1.472;2023-04-25T01:25:08;99185.09;;;19.09;54.18
54236;BME280;40151;43.606;1.472;2023-04-25T01:27:36;99182.47;;;19.09;54.16
54236;BME280;40151;43.606;1.472;2023-04-25T01:30:01;99191.34;;;19.08;53.94
54236;BME280;40151;43.606;1.472;2023-04-25T01:32:26;99192.09;;;19.10;54.06
54236;BME280;40151;43.606;1.472;2023-04-25T01:34:52;99184.16;;;19.10;54.21
54236;BME280;40151;43.606;1.472;2023-04-25T01:37:17;99189.38;;;19.11;53.99
54236;BME280;40151;43.606;1.472;2023-04-25T01:39:43;99189.44;;;19.10;53.92
54236;BME280;40151;43.606;1.472;2023-04-25T01:42:09;99186.81;;;19.10;53.93
54236;BME280;40151;43.606;1.472;2023-04-25T01:44:34;99187.00;;;19.07;54.23
54236;BME280;40151;43.606;1.472;2023-04-25T01:47:00;99178.13;;;19.08;54.10
54236;BME280;40151;43.606;1.472;2023-04-25T01:49:26;99179.97;;;19.05;54.24
54236;BME280;40151;43.606;1.472;2023-04-25T01:51:51;99172.84;;;19.08;54.04
54236;BME280;40151;43.606;1.472;2023-04-25T01:54:17;99174.69;;;19.05;53.92
54236;BME280;40151;43.606;1.472;2023-04-25T01:56:43;99178.28;;;19.04;54.00
54236;BME280;40151;43.606;1.472;2023-04-25T01:59:09;99168.56;;;19.05;53.96
54236;BME280;40151;43.606;1.472;2023-04-25T02:01:34;99169.41;;;19.05;54.10
54236;BME280;40151;43.606;1.472;2023-04-25T02:04:00;99162.41;;;19.04;53.92
54236;BME280;40151;43.606;1.472;2023-04-25T02:06:25;99158.81;;;19.05;53.97
54236;BME280;40151;43.606;1.472;2023-04-25T02:08:51;99158.94;;;19.04;53.93
54236;BME280;40151;43.606;1.472;2023-04-25T02:11:16;99160.72;;;19.03;54.05
54236;BME280;40151;43.606;1.472;2023-04-25T02:13:41;99162.41;;;19.04;54.17
54236;BME280;40151;43.606;1.472;2023-04-25T02:16:07;99159.88;;;19.03;53.96
54236;BME280;40151;43.606;1.472;2023-04-25T02:18:32;99154.47;;;19.04;53.91
54236;BME280;40151;43.606;1.472;2023-04-25T02:20:59;99155.59;;;19.00;53.94
54236;BME280;40151;43.606;1.472;2023-04-25T02:23:24;99157.25;;;19.03;54.13
54236;BME280;40151;43.606;1.472;2023-04-25T02:25:50;99142.22;;;19.03;53.74
54236;BME280;40151;43.606;1.472;2023-04-25T02:28:16;99156.41;;;19.01;54.06
54236;BME280;40151;43.606;1.472;2023-04-25T02:30:41;99155.59;;;19.00;53.76
54236;BME280;40151;43.606;1.472;2023-04-25T02:33:06;99153.69;;;19.02;53.75
54236;BME280;40151;43.606;1.472;2023-04-25T02:35:32;99150.31;;;19.00;54.07
54236;BME280;40151;43.606;1.472;2023-04-25T02:37:57;99152.84;;;19.02;54.01
54236;BME280;40151;43.606;1.472;2023-04-25T02:40:23;99139.72;;;19.00;53.82
54236;BME280;40151;43.606;1.472;2023-04-25T02:42:48;99152.00;;;19.01;53.80
54236;BME280;40151;43.606;1.472;2023-04-25T02:45:14;99153.69;;;19.02;53.78
54236;BME280;40151;43.606;1.472;2023-04-25T02:47:40;99156.50;;;18.99;54.03
54236;BME280;40151;43.606;1.472;2023-04-25T02:50:05;99138.84;;;19.00;53.66
54236;BME280;40151;43.606;1.472;2023-04-25T02:52:31;99137.16;;;18.99;53.67
54236;BME280;40151;43.606;1.472;2023-04-25T02:54:57;99138.00;;;18.99;53.80
54236;BME280;40151;43.606;1.472;2023-04-25T02:57:22;99141.59;;;18.98;53.70
54236;BME280;40151;43.606;1.472;2023-04-25T02:59:47;99150.47;;;18.97;53.87
54236;BME280;40151;43.606;1.472;2023-04-25T03:02:13;99154.81;;;18.98;53.80
54236;BME280;40151;43.606;1.472;2023-04-25T03:04:38;99147.81;;;18.97;53.98
54236;BME280;40151;43.606;1.472;2023-04-25T03:07:04;99137.25;;;18.97;53.89
54236;BME280;40151;43.606;1.472;2023-04-25T03:09:29;99143.47;;;18.96;53.79
54236;BME280;40151;43.606;1.472;2023-04-25T03:11:55;99140.06;;;18.94;53.91
54236;BME280;40151;43.606;1.472;2023-04-25T03:14:20;99136.50;;;18.95;53.71
54236;BME280;40151;43.606;1.472;2023-04-25T03:16:46;99141.78;;;18.95;53.80
54236;BME280;40151;43.606;1.472;2023-04-25T03:19:11;99137.44;;;18.94;53.63
54236;BME280;40151;43.606;1.472;2023-04-25T03:21:37;99135.63;;;18.95;53.79
54236;BME280;40151;43.606;1.472;2023-04-25T03:24:04;99138.34;;;18.93;53.73
54236;BME280;40151;43.606;1.472;2023-04-25T03:26:29;99127.78;;;18.93;53.63
54236;BME280;40151;43.606;1.472;2023-04-25T03:28:55;99126.06;;;18.92;53.93
54236;BME280;40151;43.606;1.472;2023-04-25T03:31:20;99123.44;;;18.92;53.85
54236;BME280;40151;43.606;1.472;2023-04-25T03:33:46;99131.38;;;18.92;53.94
54236;BME280;40151;43.606;1.472;2023-04-25T03:36:11;99130.41;;;18.93;53.88
54236;BME280;40151;43.606;1.472;2023-04-25T03:38:37;99124.22;;;18.94;53.62
54236;BME280;40151;43.606;1.472;2023-04-25T03:41:02;99125.13;;;18.93;53.81
54236;BME280;40151;43.606;1.472;2023-04-25T03:43:28;99128.63;;;18.94;53.58
54236;BME280;40151;43.606;1.472;2023-04-25T03:45:53;99128.72;;;18.92;53.71
54236;BME280;40151;43.606;1.472;2023-04-25T03:48:19;99124.38;;;18.91;53.94
54236;BME280;40151;43.606;1.472;2023-04-25T03:50:49;99120.88;;;18.90;53.77
54236;BME280;40151;43.606;1.472;2023-04-25T03:53:15;99124.38;;;18.91;53.58
54236;BME280;40151;43.606;1.472;2023-04-25T03:55:40;99124.38;;;18.91;53.23
54236;BME280;40151;43.606;1.472;2023-04-25T03:58:06;99118.22;;;18.90;53.58
54236;BME280;40151;43.606;1.472;2023-04-25T04:00:33;99114.75;;;18.90;53.81
54236;BME280;40151;43.606;1.472;2023-04-25T04:02:58;99110.41;;;18.89;53.87
54236;BME280;40151;43.606;1.472;2023-04-25T04:05:24;99113.06;;;18.89;53.71
54236;BME280;40151;43.606;1.472;2023-04-25T04:07:49;99110.41;;;18.89;53.67
54236;BME280;40151;43.606;1.472;2023-04-25T04:10:15;99113.97;;;18.88;53.78
54236;BME280;40151;43.606;1.472;2023-04-25T04:12:40;99114.75;;;18.90;53.81
54236;BME280;40151;43.606;1.472;2023-04-25T04:15:06;99112.28;;;18.87;53.78
54236;BME280;40151;43.606;1.472;2023-04-25T04:17:32;99113.13;;;18.87;53.82
54236;BME280;40151;43.606;1.472;2023-04-25T04:19:58;99113.13;;;18.87;53.82
54236;BME280;40151;43.606;1.472;2023-04-25T04:22:24;99106.97;;;18.87;53.75
54236;BME280;40151;43.606;1.472;2023-04-25T04:24:49;99107.84;;;18.87;53.82
54236;BME280;40151;43.606;1.472;2023-04-25T04:27:18;99098.28;;;18.85;53.75
54236;BME280;40151;43.606;1.472;2023-04-25T04:29:45;99106.16;;;18.86;53.81
54236;BME280;40151;43.606;1.472;2023-04-25T04:32:12;99100.00;;;18.86;53.75
54236;BME280;40151;43.606;1.472;2023-04-25T04:34:37;99101.69;;;18.87;53.83
54236;BME280;40151;43.606;1.472;2023-04-25T04:37:04;99093.00;;;18.85;53.72
54236;BME280;40151;43.606;1.472;2023-04-25T04:39:30;99092.06;;;18.86;53.72
54236;BME280;40151;43.606;1.472;2023-04-25T04:41:56;99094.72;;;18.86;53.56
54236;BME280;40151;43.606;1.472;2023-04-25T04:44:21;99096.41;;;18.87;53.78
54236;BME280;40151;43.606;1.472;2023-04-25T04:46:47;99101.69;;;18.87;53.63
54236;BME280;40151;43.606;1.472;2023-04-25T04:49:13;99098.28;;;18.85;53.67
54236;BME280;40151;43.606;1.472;2023-04-25T04:51:39;99101.69;;;18.87;53.30
54236;BME280;40151;43.606;1.472;2023-04-25T04:54:06;99098.28;;;18.85;53.60
54236;BME280;40151;43.606;1.472;2023-04-25T04:56:31;99101.88;;;18.84;53.67
54236;BME280;40151;43.606;1.472;2023-04-25T04:58:58;99093.00;;;18.85;53.51
54236;BME280;40151;43.606;1.472;2023-04-25T05:01:23;99095.66;;;18.85;53.77
54236;BME280;40151;43.606;1.472;2023-04-25T05:03:49;99091.31;;;18.84;53.81
54236;BME280;40151;43.606;1.472;2023-04-25T05:06:16;99090.44;;;18.83;53.39
54236;BME280;40151;43.606;1.472;2023-04-25T05:08:42;99101.97;;;18.82;53.70
54236;BME280;40151;43.606;1.472;2023-04-25T05:11:07;99101.03;;;18.83;53.75
54236;BME280;40151;43.606;1.472;2023-04-25T05:13:32;99098.28;;;18.85;53.49
54236;BME280;40151;43.606;1.472;2023-04-25T05:15:58;99093.00;;;18.85;53.53
54236;BME280;40151;43.606;1.472;2023-04-25T05:18:23;99093.00;;;18.85;53.58
54236;BME280;40151;43.606;1.472;2023-04-25T05:20:49;99105.28;;;18.86;53.58
54236;BME280;40151;43.606;1.472;2023-04-25T05:23:14;99103.59;;;18.85;53.65
54236;BME280;40151;43.606;1.472;2023-04-25T05:25:40;99100.94;;;18.85;53.49
54236;BME280;40151;43.606;1.472;2023-04-25T05:28:05;99105.47;;;18.83;53.68
54236;BME280;40151;43.606;1.472;2023-04-25T05:30:31;99104.53;;;18.84;53.74
54236;BME280;40151;43.606;1.472;2023-04-25T05:32:56;99105.47;;;18.83;53.41
54236;BME280;40151;43.606;1.472;2023-04-25T05:35:22;99113.28;;;18.84;53.58
54236;BME280;40151;43.606;1.472;2023-04-25T05:37:47;99109.91;;;18.82;53.55
54236;BME280;40151;43.606;1.472;2023-04-25T05:40:13;99115.09;;;18.84;53.50
54236;BME280;40151;43.606;1.472;2023-04-25T05:42:38;99113.28;;;18.84;53.24
54236;BME280;40151;43.606;1.472;2023-04-25T05:45:04;99102.72;;;18.84;53.53
54236;BME280;40151;43.606;1.472;2023-04-25T05:47:30;99107.16;;;18.84;53.25
54236;BME280;40151;43.606;1.472;2023-04-25T05:49:55;99098.28;;;18.85;53.11
54236;BME280;40151;43.606;1.472;2023-04-25T05:52:20;99106.31;;;18.83;53.51
54236;BME280;40151;43.606;1.472;2023-04-25T05:54:46;99110.75;;;18.83;53.67
54236;BME280;40151;43.606;1.472;2023-04-25T05:57:22;99112.47;;;18.84;53.50
54236;BME280;40151;43.606;1.472;2023-04-25T05:59:48;99117.75;;;18.84;53.60
54236;BME280;40151;43.606;1.472;2023-04-25T06:02:13;99129.25;;;18.83;53.26
54236;BME280;40151;43.606;1.472;2023-04-25T06:04:39;99117.75;;;18.84;53.37
54236;BME280;40151;43.606;1.472;2023-04-25T06:07:04;99116.06;;;18.83;53.48
54236;BME280;40151;43.606;1.472;2023-04-25T06:09:29;99120.38;;;18.84;53.53
54236;BME280;40151;43.606;1.472;2023-04-25T06:11:55;99116.06;;;18.83;53.47
54236;BME280;40151;43.606;1.472;2023-04-25T06:14:20;99123.03;;;18.84;53.44
54236;BME280;40151;43.606;1.472;2023-04-25T06:16:46;99118.78;;;18.81;53.55
54236;BME280;40151;43.606;1.472;2023-04-25T06:19:11;99112.47;;;18.84;53.42
54236;BME280;40151;43.606;1.472;2023-04-25T06:21:37;99109.03;;;18.82;53.47
54236;BME280;40151;43.606;1.472;2023-04-25T06:24:02;99109.03;;;18.82;53.55
54236;BME280;40151;43.606;1.472;2023-04-25T06:26:28;99109.03;;;18.82;53.20
54236;BME280;40151;43.606;1.472;2023-04-25T06:28:53;99109.03;;;18.82;53.46
54236;BME280;40151;43.606;1.472;2023-04-25T06:31:18;99101.03;;;18.83;53.18
54236;BME280;40151;43.606;1.472;2023-04-25T06:33:44;99104.63;;;18.82;53.31
54236;BME280;40151;43.606;1.472;2023-04-25T06:36:09;99104.63;;;18.82;53.53
54236;BME280;40151;43.606;1.472;2023-04-25T06:38:35;99095.94;;;18.80;53.22
54236;BME280;40151;43.606;1.472;2023-04-25T06:41:00;99103.66;;;18.83;53.50
54236;BME280;40151;43.606;1.472;2023-04-25T06:43:26;99109.81;;;18.84;53.18
54236;BME280;40151;43.606;1.472;2023-04-25T06:45:51;99100.19;;;18.83;53.27
54236;BME280;40151;43.606;1.472;2023-04-25T06:48:17;99097.63;;;18.81;53.47
54236;BME280;40151;43.606;1.472;2023-04-25T06:50:42;99095.06;;;18.79;53.35
54236;BME280;40151;43.606;1.472;2023-04-25T06:53:08;99098.47;;;18.82;53.54
54236;BME280;40151;43.606;1.472;2023-04-25T06:55:34;99097.63;;;18.81;53.18
54236;BME280;40151;43.606;1.472;2023-04-25T06:57:59;99104.63;;;18.82;53.40
54236;BME280;40151;43.606;1.472;2023-04-25T07:00:25;99110.75;;;18.83;53.19
54236;BME280;40151;43.606;1.472;2023-04-25T07:02:50;99109.03;;;18.82;53.32
54236;BME280;40151;43.606;1.472;2023-04-25T07:05:16;99107.34;;;18.81;53.58
54236;BME280;40151;43.606;1.472;2023-04-25T07:07:41;99105.47;;;18.83;53.31
54236;BME280;40151;43.606;1.472;2023-04-25T07:10:07;99116.88;;;18.83;53.24
54236;BME280;40151;43.606;1.472;2023-04-25T07:12:32;99107.16;;;18.84;53.20
54236;BME280;40151;43.606;1.472;2023-04-25T07:14:58;99112.47;;;18.84;53.34
54236;BME280;40151;43.606;1.472;2023-04-25T07:17:23;99111.50;;;18.85;53.21
54236;BME280;40151;43.606;1.472;2023-04-25T07:19:49;99121.34;;;18.83;53.45
54236;BME280;40151;43.606;1.472;2023-04-25T07:22:14;99138.09;;;18.82;53.34
54236;BME280;40151;43.606;1.472;2023-04-25T07:24:40;99142.47;;;18.83;53.63
54236;BME280;40151;43.606;1.472;2023-04-25T07:27:06;99158.44;;;18.81;53.58
54236;BME280;40151;43.606;1.472;2023-04-25T07:29:31;99155.78;;;18.81;53.52
54236;BME280;40151;43.606;1.472;2023-04-25T07:31:57;99165.50;;;18.81;53.70
54236;BME280;40151;43.606;1.472;2023-04-25T07:34:22;99172.47;;;18.82;53.41
54236;BME280;40151;43.606;1.472;2023-04-25T07:36:47;99174.38;;;18.79;53.58
54236;BME280;40151;43.606;1.472;2023-04-25T07:39:14;99175.22;;;18.80;53.59
54236;BME280;40151;43.606;1.472;2023-04-25T07:41:39;99167.19;;;18.82;53.57
54236;BME280;40151;43.606;1.472;2023-04-25T07:44:05;99177.75;;;18.82;53.61
54236;BME280;40151;43.606;1.472;2023-04-25T07:46:30;99172.66;;;18.78;53.88
54236;BME280;40151;43.606;1.472;2023-04-25T07:48:56;99176.06;;;18.81;53.55
54236;BME280;40151;43.606;1.472;2023-04-25T07:51:21;99174.38;;;18.79;53.75
54236;BME280;40151;43.606;1.472;2023-04-25T07:53:47;99182.28;;;18.79;53.56
54236;BME280;40151;43.606;1.472;2023-04-25T07:56:12;99185.81;;;18.80;53.56
54236;BME280;40151;43.606;1.472;2023-04-25T07:58:38;99184.94;;;18.79;53.75
54236;BME280;40151;43.606;1.472;2023-04-25T08:01:03;99199.03;;;18.80;53.59
54236;BME280;40151;43.606;1.472;2023-04-25T08:03:29;99204.19;;;18.82;53.59
54236;BME280;40151;43.606;1.472;2023-04-25T08:05:54;99196.25;;;18.82;53.76
54236;BME280;40151;43.606;1.472;2023-04-25T08:08:20;99203.44;;;18.79;53.91
54236;BME280;40151;43.606;1.472;2023-04-25T08:10:46;99206.28;;;18.76;53.83
54236;BME280;40151;43.606;1.472;2023-04-25T08:13:13;99206.09;;;18.79;53.56
54236;BME280;40151;43.606;1.472;2023-04-25T08:15:38;99214.97;;;18.78;53.90
54236;BME280;40151;43.606;1.472;2023-04-25T08:18:04;99205.22;;;18.79;53.61
54236;BME280;40151;43.606;1.472;2023-04-25T08:20:29;99198.16;;;18.79;53.69
54236;BME280;40151;43.606;1.472;2023-04-25T08:22:55;99207.03;;;18.78;53.60
54236;BME280;40151;43.606;1.472;2023-04-25T08:25:21;99206.09;;;18.79;53.91
54236;BME280;40151;43.606;1.472;2023-04-25T08:27:46;99207.88;;;18.79;53.74
54236;BME280;40151;43.606;1.472;2023-04-25T08:30:12;99204.38;;;18.78;53.90
54236;BME280;40151;43.606;1.472;2023-04-25T08:32:37;99214.97;;;18.78;53.56
54236;BME280;40151;43.606;1.472;2023-04-25T08:35:06;99229.13;;;18.77;53.81
54236;BME280;40151;43.606;1.472;2023-04-25T08:37:32;99241.38;;;18.78;53.77
54236;BME280;40151;43.606;1.472;2023-04-25T08:39:57;99240.53;;;18.78;53.64
54236;BME280;40151;43.606;1.472;2023-04-25T08:42:23;99244.97;;;18.77;53.90
54236;BME280;40151;43.606;1.472;2023-04-25T08:44:50;99252.81;;;18.79;53.77
54236;BME280;40151;43.606;1.472;2023-04-25T08:47:18;99266.13;;;18.77;54.04
54236;BME280;40151;43.606;1.472;2023-04-25T08:49:45;99257.25;;;18.78;53.67
54236;BME280;40151;43.606;1.472;2023-04-25T08:52:13;99263.47;;;18.77;54.01
54236;BME280;40151;43.606;1.472;2023-04-25T08:54:42;99271.41;;;18.77;53.83
54236;BME280;40151;43.606;1.472;2023-04-25T08:57:09;99281.97;;;18.77;53.82
54236;BME280;40151;43.606;1.472;2023-04-25T08:59:35;99288.97;;;18.78;53.77
54236;BME280;40151;43.606;1.472;2023-04-25T09:02:02;99287.28;;;18.77;53.75
54236;BME280;40151;43.606;1.472;2023-04-25T09:04:32;99287.28;;;18.77;53.92
54236;BME280;40151;43.606;1.472;2023-04-25T09:06:58;99287.28;;;18.77;53.90
54236;BME280;40151;43.606;1.472;2023-04-25T09:09:23;99294.25;;;18.78;53.87
54236;BME280;40151;43.606;1.472;2023-04-25T09:11:49;99299.53;;;18.78;53.97
54236;BME280;40151;43.606;1.472;2023-04-25T09:14:19;99299.53;;;18.78;53.61
54236;BME280;40151;43.606;1.472;2023-04-25T09:19:23;99305.66;;;18.79;53.84
54236;BME280;40151;43.606;1.472;2023-04-25T09:21:50;99314.53;;;18.78;53.85
54236;BME280;40151;43.606;1.472;2023-04-25T09:24:16;99305.66;;;18.79;53.91
54236;BME280;40151;43.606;1.472;2023-04-25T09:26:41;99309.34;;;18.76;53.58
54236;BME280;40151;43.606;1.472;2023-04-25T09:29:07;99313.72;;;18.77;53.88
54236;BME280;40151;43.606;1.472;2023-04-25T09:31:33;99319.00;;;18.77;54.15
54236;BME280;40151;43.606;1.472;2023-04-25T09:34:02;99322.56;;;18.76;53.73
54236;BME280;40151;43.606;1.472;2023-04-25T09:36:30;99324.28;;;18.77;53.97
54236;BME280;40151;43.606;1.472;2023-04-25T09:38:55;99332.97;;;18.79;53.84
54236;BME280;40151;43.606;1.472;2023-04-25T09:41:25;99328.63;;;18.78;53.82
54236;BME280;40151;43.606;1.472;2023-04-25T09:43:51;99335.69;;;18.78;53.87
54236;BME280;40151;43.606;1.472;2023-04-25T09:46:16;99341.66;;;18.82;53.96
54236;BME280;40151;43.606;1.472;2023-04-25T09:48:52;99339.97;;;18.81;53.94
54236;BME280;40151;43.606;1.472;2023-04-25T09:51:18;99342.53;;;18.82;53.59
54236;BME280;40151;43.606;1.472;2023-04-25T09:53:46;99340.13;;;18.77;53.68
54236;BME280;40151;43.606;1.472;2023-04-25T09:56:14;99341.84;;;18.78;54.04
54236;BME280;40151;43.606;1.472;2023-04-25T09:58:41;99347.97;;;18.79;53.82
54236;BME280;40151;43.606;1.472;2023-04-25T10:01:10;99342.69;;;18.79;53.55
54236;BME280;40151;43.606;1.472;2023-04-25T10:03:38;99342.78;;;18.77;53.92
54236;BME280;40151;43.606;1.472;2023-04-25T10:06:18;99338.25;;;18.79;53.90
54236;BME280;40151;43.606;1.472;2023-04-25T10:08:44;99342.69;;;18.79;53.94
54236;BME280;40151;43.606;1.472;2023-04-25T10:11:10;99347.13;;;18.78;53.74
54236;BME280;40151;43.606;1.472;2023-04-25T10:13:40;99350.72;;;18.77;53.75
54236;BME280;40151;43.606;1.472;2023-04-25T10:16:05;99343.63;;;18.78;53.90
54236;BME280;40151;43.606;1.472;2023-04-25T10:18:32;99338.25;;;18.79;53.86
54236;BME280;40151;43.606;1.472;2023-04-25T10:21:00;99339.13;;;18.80;53.87
54236;BME280;40151;43.606;1.472;2023-04-25T10:23:26;99330.31;;;18.79;53.80
54236;BME280;40151;43.606;1.472;2023-04-25T10:25:53;99339.97;;;18.81;53.63
54236;BME280;40151;43.606;1.472;2023-04-25T10:28:19;99322.31;;;18.81;53.82
54236;BME280;40151;43.606;1.472;2023-04-25T10:31:01;99324.97;;;18.81;53.75
54236;BME280;40151;43.606;1.472;2023-04-25T10:33:39;99326.59;;;18.84;53.49
54236;BME280;40151;43.606;1.472;2023-04-25T10:36:14;99327.34;;;18.86;53.64
54236;BME280;40151;43.606;1.472;2023-04-25T10:38:44;99329.16;;;18.85;53.72
54236;BME280;40151;43.606;1.472;2023-04-25T10:41:12;99316.84;;;18.84;53.91
54236;BME280;40151;43.606;1.472;2023-04-25T10:43:39;99320.34;;;18.85;53.75
54236;BME280;40151;43.606;1.472;2023-04-25T10:46:24;99332.63;;;18.86;53.93
54236;BME280;40151;43.606;1.472;2023-04-25T10:48:54;99329.22;;;18.84;53.98
54236;BME280;40151;43.606;1.472;2023-04-25T10:51:33;99327.44;;;18.84;53.85
54236;BME280;40151;43.606;1.472;2023-04-25T10:54:01;99325.66;;;18.85;53.69
54236;BME280;40151;43.606;1.472;2023-04-25T10:56:38;99323.75;;;18.87;53.96
54236;BME280;40151;43.606;1.472;2023-04-25T10:59:17;99330.94;;;18.85;53.51
54236;BME280;40151;43.606;1.472;2023-04-25T11:01:47;99337.94;;;18.86;53.63
54236;BME280;40151;43.606;1.472;2023-04-25T11:04:23;99328.91;;;18.90;53.79
54236;BME280;40151;43.606;1.472;2023-04-25T11:09:32;99323.44;;;18.93;54.08
54236;BME280;40151;43.606;1.472;2023-04-25T11:11:59;99317.03;;;18.97;55.20
54236;BME280;40151;43.606;1.472;2023-04-25T11:14:26;99315.09;;;19.01;55.66
54236;BME280;40151;43.606;1.472;2023-04-25T11:16:55;99321.25;;;19.01;56.48
54236;BME280;40151;43.606;1.472;2023-04-25T11:19:21;99313.94;;;19.07;56.04
54236;BME280;40151;43.606;1.472;2023-04-25T11:21:46;99305.06;;;19.08;56.28
54236;BME280;40151;43.606;1.472;2023-04-25T11:24:12;99310.16;;;19.11;56.54
54236;BME280;40151;43.606;1.472;2023-04-25T11:26:37;99308.47;;;19.10;56.95
54236;BME280;40151;43.606;1.472;2023-04-25T11:29:03;99305.66;;;19.13;56.61
54236;BME280;40151;43.606;1.472;2023-04-25T11:31:29;99297.53;;;19.16;56.49
54236;BME280;40151;43.606;1.472;2023-04-25T11:33:57;99290.38;;;19.18;56.43
54236;BME280;40151;43.606;1.472;2023-04-25T11:36:23;99298.22;;;19.19;57.20
54236;BME280;40151;43.606;1.472;2023-04-25T11:38:50;99292.69;;;19.24;56.41
54236;BME280;40151;43.606;1.472;2023-04-25T11:41:17;99291.75;;;19.25;56.39
54236;BME280;40151;43.606;1.472;2023-04-25T11:43:43;99295.16;;;19.27;56.13
54236;BME280;40151;43.606;1.472;2023-04-25T11:46:09;99298.66;;;19.28;56.71
54236;BME280;40151;43.606;1.472;2023-04-25T11:48:41;99303.88;;;19.29;56.39
54236;BME280;40151;43.606;1.472;2023-04-25T11:51:10;99295.94;;;19.29;57.01
54236;BME280;40151;43.606;1.472;2023-04-25T11:53:35;99289.69;;;19.30;56.82
54236;BME280;40151;43.606;1.472;2023-04-25T11:56:01;99286.09;;;19.31;56.69
54236;BME280;40151;43.606;1.472;2023-04-25T11:58:27;99280.72;;;19.33;57.08
54236;BME280;40151;43.606;1.472;2023-04-25T12:00:53;99277.22;;;19.32;57.00
54236;BME280;40151;43.606;1.472;2023-04-25T12:03:19;99270.81;;;19.37;56.70
54236;BME280;40151;43.606;1.472;2023-04-25T12:05:45;99270.75;;;19.38;56.77
54236;BME280;40151;43.606;1.472;2023-04-25T12:08:14;99280.28;;;19.41;56.75
54236;BME280;40151;43.606;1.472;2023-04-25T12:10:42;99287.38;;;19.40;56.77
54236;BME280;40151;43.606;1.472;2023-04-25T12:13:19;99289.16;;;19.40;57.25
54236;BME280;40151;43.606;1.472;2023-04-25T12:15:45;99286.34;;;19.43;56.92
54236;BME280;40151;43.606;1.472;2023-04-25T12:18:11;99283.69;;;19.43;56.84
54236;BME280;40151;43.606;1.472;2023-04-25T12:20:36;99287.09;;;19.45;56.96
54236;BME280;40151;43.606;1.472;2023-04-25T12:23:05;99276.50;;;19.45;56.84
54236;BME280;40151;43.606;1.472;2023-04-25T12:31:07;99283.34;;;19.49;57.00
54236;BME280;40151;43.606;1.472;2023-04-25T12:33:37;99279.75;;;19.50;56.55
54236;BME280;40151;43.606;1.472;2023-04-25T12:36:04;99281.44;;;19.51;56.79
54236;BME280;40151;43.606;1.472;2023-04-25T12:38:41;99277.88;;;19.52;56.82
54236;BME280;40151;43.606;1.472;2023-04-25T12:41:07;99280.50;;;19.52;56.52
54236;BME280;40151;43.606;1.472;2023-04-25T12:43:33;99279.59;;;19.53;56.44
54236;BME280;40151;43.606;1.472;2023-04-25T12:45:58;99290.19;;;19.53;56.66
54236;BME280;40151;43.606;1.472;2023-04-25T12:48:24;99291.00;;;19.54;57.13
54236;BME280;40151;43.606;1.472;2023-04-25T12:50:50;99297.16;;;19.54;56.72
54236;BME280;40151;43.606;1.472;2023-04-25T12:53:17;99281.28;;;19.54;56.58
54236;BME280;40151;43.606;1.472;2023-04-25T12:55:43;99288.28;;;19.55;56.63
54236;BME280;40151;43.606;1.472;2023-04-25T12:58:11;99293.75;;;19.52;57.28
54236;BME280;40151;43.606;1.472;2023-04-25T13:00:36;99287.41;;;19.55;57.01
54236;BME280;40151;43.606;1.472;2023-04-25T13:03:02;99293.56;;;19.55;56.82
54236;BME280;40151;43.606;1.472;2023-04-25T13:05:28;99296.97;;;19.57;56.58
54236;BME280;40151;43.606;1.472;2023-04-25T13:07:55;99295.28;;;19.56;56.79